createdAt,value
2022-09-11T00:01:17.003Z,17.52
2022-09-11T00:03:45.434Z,18.77
2022-09-11T00:06:20.435Z,18.08
2022-09-11T00:09:00.485Z,17.35
2022-09-11T00:11:30.252Z,18.65
2022-09-11T00:13:56.896Z,17.83
2022-09-11T00:16:29.355Z,18.08
2022-09-11T00:18:59.243Z,17.58
2022-09-11T00:21:27.031Z,20.42
2022-09-11T00:23:53.587Z,18.83
2022-09-11T00:26:21.319Z,18.83
2022-09-11T00:28:50.423Z,19.13
2022-09-11T00:31:19.705Z,18.65
2022-09-11T00:33:46.379Z,19.20
2022-09-11T00:36:19.374Z,18.83
2022-09-11T00:38:46.309Z,19.67
2022-09-11T00:41:15.914Z,20.42
2022-09-11T00:43:50.657Z,20.13
2022-09-11T00:46:17.445Z,19.52
2022-09-11T00:48:50.035Z,20.08
2022-09-11T00:51:25.906Z,20.20
2022-09-11T00:53:56.586Z,21.88
2022-09-11T00:56:31.255Z,21.05
2022-09-11T00:58:59.245Z,20.55
2022-09-11T01:01:26.046Z,20.67
2022-09-11T01:03:52.608Z,23.17
2022-09-11T01:06:20.976Z,20.88
2022-09-11T01:08:47.505Z,23.02
2022-09-11T01:11:31.444Z,22.52
2022-09-11T01:14:25.822Z,25.00
2022-09-11T01:17:08.126Z,28.05
2022-09-11T01:20:05.112Z,27.73
2022-09-11T01:22:40.830Z,25.27
2022-09-11T01:25:15.518Z,25.08
2022-09-11T01:27:43.367Z,23.85
2022-09-11T01:30:19.798Z,23.88
2022-09-11T01:32:49.312Z,23.95
2022-09-11T01:35:35.432Z,24.35
2022-09-11T01:38:09.001Z,22.27
2022-09-11T01:40:45.811Z,22.98
2022-09-11T01:43:19.820Z,25.13
2022-09-11T01:45:49.764Z,23.38
2022-09-11T01:48:23.013Z,23.35
2022-09-11T01:50:54.060Z,24.65
2022-09-11T01:53:25.882Z,25.98
2022-09-11T01:55:58.698Z,23.85
2022-09-11T01:58:31.751Z,24.90
2022-09-11T02:01:04.983Z,24.63
2022-09-11T02:03:47.674Z,25.50
2022-09-11T02:06:24.570Z,24.25
2022-09-11T02:08:56.449Z,25.55
2022-09-11T02:11:24.857Z,25.73
2022-09-11T02:14:16.748Z,25.35
2022-09-11T02:17:14.842Z,26.33
2022-09-11T02:19:41.960Z,24.20
2022-09-11T02:22:08.595Z,28.02
2022-09-11T02:24:37.657Z,26.45
2022-09-11T02:27:09.552Z,26.60
2022-09-11T02:29:36.967Z,27.77
2022-09-11T02:32:04.585Z,26.60
2022-09-11T02:34:36.762Z,26.38
2022-09-11T02:37:38.469Z,27.60
2022-09-11T02:40:42.487Z,24.23
2022-09-11T02:43:18.112Z,25.20
2022-09-11T02:46:03.670Z,27.25
2022-09-11T02:48:45.598Z,24.92
2022-09-11T02:51:45.095Z,25.05
2022-09-11T02:54:33.243Z,27.63
2022-09-11T02:57:22.685Z,26.88
2022-09-11T02:59:56.233Z,23.30
2022-09-11T03:02:24.721Z,32.42
2022-09-11T03:04:51.298Z,32.90
2022-09-11T03:07:18.137Z,38.08
2022-09-11T03:09:44.669Z,33.72
2022-09-11T03:12:18.236Z,37.17
2022-09-11T03:14:49.477Z,36.90
2022-09-11T03:17:17.022Z,37.40
2022-09-11T03:19:43.890Z,37.53
2022-09-11T03:22:10.369Z,33.63
2022-09-11T03:24:36.848Z,39.30
2022-09-11T03:27:04.528Z,42.30
2022-09-11T03:29:31.698Z,40.42
2022-09-11T03:31:59.837Z,42.25
2022-09-11T03:34:26.453Z,43.13
2022-09-11T03:36:53.336Z,42.25
2022-09-11T03:39:19.913Z,44.90
2022-09-11T03:41:46.413Z,37.13
2022-09-11T03:44:12.879Z,37.67
2022-09-11T03:46:39.987Z,36.50
2022-09-11T03:49:09.427Z,35.70
2022-09-11T03:51:37.013Z,37.72
2022-09-11T03:54:03.693Z,38.97
2022-09-11T03:56:31.127Z,36.55
2022-09-11T03:59:00.082Z,36.58
2022-09-11T04:01:27.804Z,37.90
2022-09-11T04:03:55.161Z,36.47
2022-09-11T04:08:59.678Z,38.22
2022-09-11T04:11:26.204Z,38.92
2022-09-11T04:13:54.883Z,39.65
2022-09-11T04:16:24.217Z,38.70
2022-09-11T04:18:54.278Z,39.03
2022-09-11T04:21:21.294Z,41.28
2022-09-11T04:23:56.444Z,40.75
2022-09-11T04:26:26.475Z,38.47
2022-09-11T04:28:59.092Z,42.38
2022-09-11T04:31:29.481Z,42.97
2022-09-11T04:33:58.140Z,42.28
2022-09-11T04:36:29.877Z,40.17
2022-09-11T04:38:58.738Z,44.83
2022-09-11T04:41:25.582Z,41.95
2022-09-11T04:44:02.403Z,40.63
2022-09-11T04:46:31.423Z,39.45
2022-09-11T04:48:59.955Z,38.28
2022-09-11T04:51:30.209Z,34.03
2022-09-11T04:53:59.523Z,35.10
2022-09-11T04:56:34.177Z,34.20
2022-09-11T04:59:16.378Z,35.85
2022-09-11T05:01:54.614Z,32.90
2022-09-11T05:04:25.924Z,34.35
2022-09-11T05:06:54.454Z,34.08
2022-09-11T05:09:21.196Z,35.30
2022-09-11T05:11:48.361Z,33.28
2022-09-11T05:14:16.180Z,34.70
2022-09-11T05:16:45.954Z,33.85
2022-09-11T05:19:14.273Z,33.85
2022-09-11T05:21:43.874Z,30.33
2022-09-11T05:24:10.631Z,34.10
2022-09-11T05:26:38.352Z,33.88
2022-09-11T05:29:13.329Z,33.63
2022-09-11T05:31:45.580Z,31.90
2022-09-11T05:34:14.888Z,32.33
2022-09-11T05:36:41.751Z,30.52
2022-09-11T05:39:10.378Z,32.20
2022-09-11T05:41:37.537Z,31.30
2022-09-11T05:44:04.150Z,31.38
2022-09-11T05:46:32.178Z,33.33
2022-09-11T05:49:02.029Z,30.23
2022-09-11T05:51:28.534Z,31.63
2022-09-11T05:53:58.086Z,30.33
2022-09-11T05:56:25.544Z,31.42
2022-09-11T05:58:57.937Z,33.40
2022-09-11T06:01:31.509Z,32.70
2022-09-11T06:04:11.111Z,31.98
2022-09-11T06:06:38.377Z,32.35
2022-09-11T06:09:05.952Z,31.15
2022-09-11T06:11:32.673Z,31.50
2022-09-11T06:14:00.117Z,31.23
2022-09-11T06:16:29.159Z,29.98
2022-09-11T06:19:00.578Z,29.50
2022-09-11T06:21:29.131Z,29.83
2022-09-11T06:24:05.508Z,28.33
2022-09-11T06:26:32.302Z,28.77
2022-09-11T06:28:59.108Z,30.52
2022-09-11T06:31:27.030Z,29.80
2022-09-11T06:33:54.914Z,27.02
2022-09-11T06:36:24.355Z,28.85
2022-09-11T06:38:55.684Z,27.98
2022-09-11T06:41:25.229Z,29.75
2022-09-11T06:43:56.284Z,28.33
2022-09-11T06:46:25.216Z,27.05
2022-09-11T06:48:56.374Z,28.00
2022-09-11T06:51:27.080Z,28.35
2022-09-11T06:53:58.552Z,27.80
2022-09-11T06:56:31.993Z,27.55
2022-09-11T06:59:00.498Z,27.38
2022-09-11T07:01:28.400Z,28.50
2022-09-11T07:03:59.898Z,29.00
2022-09-11T07:06:28.919Z,28.80
2022-09-11T07:09:00.851Z,29.45
2022-09-11T07:11:34.865Z,28.13
2022-09-11T07:14:05.723Z,26.80
2022-09-11T07:16:36.503Z,25.50
2022-09-11T07:19:09.173Z,25.50
2022-09-11T07:21:37.194Z,25.98
2022-09-11T07:24:05.143Z,25.73
2022-09-11T07:26:38.778Z,25.50
2022-09-11T07:29:13.854Z,25.90
2022-09-11T07:31:42.680Z,26.85
2022-09-11T07:34:10.893Z,25.05
2022-09-11T07:36:37.561Z,24.85
2022-09-11T07:39:07.409Z,27.05
2022-09-11T07:41:38.038Z,23.30
2022-09-11T07:44:12.929Z,27.48
2022-09-11T07:46:41.374Z,28.30
2022-09-11T07:49:10.149Z,27.52
2022-09-11T07:51:39.211Z,29.00
2022-09-11T07:54:07.086Z,28.67
2022-09-11T07:56:36.106Z,29.05
2022-09-11T07:59:09.192Z,30.80
2022-09-11T08:01:39.324Z,29.75
2022-09-11T08:04:10.074Z,30.92
2022-09-11T08:06:38.316Z,30.98
2022-09-11T08:09:15.703Z,28.40
2022-09-11T08:11:48.812Z,32.15
2022-09-11T08:14:17.686Z,30.00
2022-09-11T08:16:46.613Z,30.67
2022-09-11T08:19:19.127Z,30.33
2022-09-11T08:21:50.803Z,27.50
2022-09-11T08:24:20.240Z,28.25
2022-09-11T08:26:49.263Z,27.38
2022-09-11T08:29:18.230Z,27.77
2022-09-11T08:31:45.366Z,29.85
2022-09-11T08:34:12.579Z,26.67
2022-09-11T08:36:39.840Z,27.05
2022-09-11T08:39:09.042Z,26.30
2022-09-11T08:41:50.133Z,27.23
2022-09-11T08:44:23.429Z,27.70
2022-09-11T08:47:03.674Z,25.35
2022-09-11T08:49:39.146Z,26.20
2022-09-11T08:52:06.386Z,25.20
2022-09-11T08:54:38.010Z,24.73
2022-09-11T08:57:42.512Z,24.48
2022-09-11T09:00:23.423Z,25.33
2022-09-11T09:03:12.900Z,25.05
2022-09-11T09:05:44.256Z,23.42
2022-09-11T09:08:29.656Z,24.30
2022-09-11T09:11:09.478Z,24.35
2022-09-11T09:13:36.176Z,22.67
2022-09-11T09:16:25.076Z,23.65
2022-09-11T09:19:00.740Z,20.73
2022-09-11T09:21:36.009Z,20.27
2022-09-11T09:24:19.090Z,19.83
2022-09-11T09:26:54.814Z,21.45
2022-09-11T09:29:28.449Z,21.00
2022-09-11T09:32:05.623Z,21.75
2022-09-11T09:34:37.421Z,19.52
2022-09-11T09:37:23.526Z,20.25
2022-09-11T09:39:51.193Z,19.92
2022-09-11T09:42:50.862Z,21.58
2022-09-11T09:45:38.687Z,21.25
2022-09-11T09:48:07.018Z,20.63
2022-09-11T09:50:35.904Z,21.13
2022-09-11T09:53:37.845Z,22.23
2022-09-11T09:56:06.070Z,22.85
2022-09-11T09:58:39.171Z,22.20
2022-09-11T10:01:45.196Z,24.08
2022-09-11T10:04:26.997Z,23.15
2022-09-11T10:07:19.930Z,20.88
2022-09-11T10:09:49.999Z,22.48
2022-09-11T10:12:20.527Z,21.63
2022-09-11T10:15:01.270Z,23.02
2022-09-11T10:17:31.337Z,20.85
2022-09-11T10:20:18.453Z,20.17
2022-09-11T10:22:47.886Z,22.30
2022-09-11T10:25:16.039Z,19.42
2022-09-11T10:27:54.474Z,24.95
2022-09-11T10:30:31.546Z,22.98
2022-09-11T10:33:03.324Z,22.08
2022-09-11T10:35:32.114Z,20.55
2022-09-11T10:38:05.237Z,22.65
2022-09-11T10:40:31.875Z,21.60
2022-09-11T10:42:58.360Z,20.67
2022-09-11T10:45:25.323Z,21.77
2022-09-11T10:47:52.258Z,22.38
2022-09-11T10:50:25.753Z,21.50
2022-09-11T10:52:58.271Z,19.75
2022-09-11T10:55:37.617Z,19.67
2022-09-11T10:58:12.155Z,20.13
2022-09-11T11:00:39.439Z,20.13
2022-09-11T11:03:12.548Z,20.38
2022-09-11T11:06:04.078Z,19.17
2022-09-11T11:08:55.285Z,19.60
2022-09-11T11:11:44.157Z,19.10
2022-09-11T11:14:49.045Z,17.20
2022-09-11T11:17:37.746Z,17.48
2022-09-11T11:20:31.304Z,18.90
2022-09-11T11:23:24.185Z,17.05
2022-09-11T11:26:22.984Z,15.88
2022-09-11T11:29:01.610Z,16.15
2022-09-11T11:31:44.315Z,17.00
2022-09-11T11:34:35.431Z,15.52
2022-09-11T11:37:12.426Z,14.27
2022-09-11T11:39:48.201Z,13.57
2022-09-11T11:42:28.258Z,14.18
2022-09-11T11:45:03.985Z,13.18
2022-09-11T11:47:36.689Z,15.45
2022-09-11T11:50:15.250Z,13.52
2022-09-11T11:53:01.680Z,12.27
2022-09-11T11:58:24.174Z,15.05
2022-09-11T12:00:58.292Z,15.90
2022-09-11T12:03:34.890Z,14.95
2022-09-11T12:06:02.112Z,16.33
2022-09-11T12:08:28.674Z,13.93
2022-09-11T12:11:00.449Z,14.18
2022-09-11T12:13:33.938Z,13.82
2022-09-11T12:16:20.007Z,15.98
2022-09-11T12:19:20.781Z,15.68
2022-09-11T12:21:53.386Z,13.32
2022-09-11T12:24:50.318Z,12.32
2022-09-11T12:27:35.173Z,12.73
2022-09-11T12:30:16.958Z,13.10
2022-09-11T12:33:29.871Z,12.73
2022-09-11T12:35:56.935Z,12.45
2022-09-11T12:38:32.488Z,11.65
2022-09-11T12:41:07.362Z,11.52
2022-09-11T12:43:37.251Z,11.67
2022-09-11T12:46:11.000Z,8.65
2022-09-11T12:49:00.342Z,8.30
2022-09-11T12:51:37.743Z,8.88
2022-09-11T12:54:13.377Z,10.00
2022-09-11T12:56:47.164Z,10.90
2022-09-11T12:59:30.035Z,10.32
2022-09-11T13:01:57.598Z,10.05
2022-09-11T13:04:26.958Z,11.07
2022-09-11T13:07:02.454Z,5.95
2022-09-11T13:09:31.198Z,4.45
2022-09-11T13:12:26.337Z,7.93
2022-09-11T13:15:00.567Z,6.97
2022-09-11T13:17:44.916Z,8.30
2022-09-11T13:20:14.778Z,8.27
2022-09-11T13:22:42.460Z,8.32
2022-09-11T13:25:15.509Z,8.00
2022-09-11T13:27:45.840Z,7.97
2022-09-11T13:30:17.260Z,6.88
2022-09-11T13:32:47.421Z,7.93
2022-09-11T13:35:19.532Z,8.18
2022-09-11T13:37:53.170Z,7.50
2022-09-11T13:40:30.618Z,6.13
2022-09-11T13:43:01.067Z,6.65
2022-09-11T13:45:29.641Z,6.50
2022-09-11T13:48:01.021Z,6.65
2022-09-11T13:50:29.607Z,5.70
2022-09-11T13:52:57.409Z,6.10
2022-09-11T13:55:34.498Z,5.35
2022-09-11T13:58:03.616Z,5.32
2022-09-11T14:00:46.238Z,5.60
2022-09-11T14:03:36.760Z,4.63
2022-09-11T14:06:10.713Z,6.00
2022-09-11T14:08:52.102Z,5.63
2022-09-11T14:11:26.238Z,5.72
2022-09-11T14:14:00.808Z,5.75
2022-09-11T14:16:31.968Z,5.13
2022-09-11T14:19:15.159Z,6.38
2022-09-11T14:21:47.557Z,6.85
2022-09-11T14:24:32.687Z,5.70
2022-09-11T14:27:01.564Z,5.85
2022-09-11T14:29:33.149Z,4.97
2022-09-11T14:32:27.893Z,5.65
2022-09-11T14:34:54.516Z,5.20
2022-09-11T14:37:22.306Z,5.55
2022-09-11T14:40:00.392Z,5.63
2022-09-11T14:42:30.016Z,6.15
2022-09-11T14:44:56.598Z,5.35
2022-09-11T14:47:28.859Z,5.95
2022-09-11T14:49:57.472Z,5.53
2022-09-11T14:52:29.199Z,6.07
2022-09-11T14:55:00.556Z,6.18
2022-09-11T14:57:32.386Z,4.45
2022-09-11T14:59:59.500Z,5.88
2022-09-11T15:02:28.259Z,5.50
2022-09-11T15:04:57.169Z,5.72
2022-09-11T15:07:24.746Z,5.72
2022-09-11T15:09:52.855Z,6.47
2022-09-11T15:12:19.642Z,6.38
2022-09-11T15:14:57.640Z,6.57
2022-09-11T15:17:25.931Z,5.53
2022-09-11T15:19:53.355Z,5.93
2022-09-11T15:22:20.238Z,6.45
2022-09-11T15:24:47.082Z,5.20
2022-09-11T15:27:13.812Z,5.57
2022-09-11T15:29:42.449Z,5.82
2022-09-11T15:32:09.754Z,5.07
2022-09-11T15:34:38.288Z,5.95
2022-09-11T15:37:05.656Z,5.78
2022-09-11T15:39:33.731Z,6.25
2022-09-11T15:42:01.678Z,8.43
2022-09-11T15:44:31.643Z,5.45
2022-09-11T15:46:59.080Z,4.75
2022-09-11T15:49:28.342Z,6.75
2022-09-11T15:51:55.002Z,6.00
2022-09-11T15:54:23.384Z,4.68
2022-09-11T15:56:51.250Z,5.30
2022-09-11T15:59:17.847Z,5.38
2022-09-11T16:01:45.069Z,5.45
2022-09-11T16:04:15.311Z,6.05
2022-09-11T16:06:45.598Z,6.97
2022-09-11T16:09:19.415Z,5.50
2022-09-11T16:11:47.894Z,5.70
2022-09-11T16:14:30.163Z,6.25
2022-09-11T16:16:58.419Z,5.60
2022-09-11T16:19:27.812Z,5.13
2022-09-11T16:21:56.603Z,4.35
2022-09-11T16:24:25.444Z,4.80
2022-09-11T16:26:54.304Z,4.72
2022-09-11T16:29:21.062Z,4.75
2022-09-11T16:31:47.727Z,5.15
2022-09-11T16:34:15.082Z,4.38
2022-09-11T16:36:42.568Z,4.43
2022-09-11T16:39:11.957Z,5.25
2022-09-11T16:41:38.805Z,5.72
2022-09-11T16:44:07.935Z,4.32
2022-09-11T16:46:36.283Z,4.82
2022-09-11T16:49:03.504Z,5.15
2022-09-11T16:51:30.189Z,4.80
2022-09-11T16:53:57.055Z,10.57
2022-09-11T16:56:24.487Z,7.45
2022-09-11T16:58:51.628Z,5.43
2022-09-11T17:01:24.378Z,5.55
2022-09-11T17:03:52.990Z,5.57
2022-09-11T17:06:21.151Z,4.53
2022-09-11T17:08:50.692Z,5.40
2022-09-11T17:11:19.891Z,5.43
2022-09-11T17:13:46.885Z,5.47
2022-09-11T17:16:25.066Z,5.10
2022-09-11T17:18:54.697Z,4.63
2022-09-11T17:21:24.019Z,5.43
2022-09-11T17:23:52.611Z,5.88
2022-09-11T17:26:19.516Z,5.78
2022-09-11T17:28:48.424Z,5.43
2022-09-11T17:31:16.600Z,5.22
2022-09-11T17:33:45.278Z,5.30
2022-09-11T17:36:12.959Z,5.13
2022-09-11T17:38:40.107Z,5.10
2022-09-11T17:41:08.436Z,5.30
2022-09-11T17:43:36.492Z,5.38
2022-09-11T17:46:04.103Z,6.10
2022-09-11T17:48:31.290Z,5.05
2022-09-11T17:51:03.153Z,4.90
2022-09-11T17:53:38.647Z,5.53
2022-09-11T17:56:18.030Z,5.50
2022-09-11T17:58:45.447Z,5.13
2022-09-11T18:01:16.678Z,5.25
2022-09-11T18:03:44.313Z,6.03
2022-09-11T18:06:32.553Z,6.25
2022-09-11T18:09:01.643Z,5.97
2022-09-11T18:11:29.483Z,5.60
2022-09-11T18:13:56.145Z,5.55
2022-09-11T18:16:22.816Z,5.30
2022-09-11T18:18:49.398Z,5.57
2022-09-11T18:21:15.950Z,5.75
2022-09-11T18:23:44.581Z,5.53
2022-09-11T18:26:26.479Z,5.72
2022-09-11T18:29:02.056Z,6.15
2022-09-11T18:31:33.018Z,6.15
2022-09-11T18:34:00.929Z,7.63
2022-09-11T18:36:29.436Z,6.78
2022-09-11T18:39:00.104Z,6.80
2022-09-11T18:41:29.586Z,7.05
2022-09-11T18:43:57.776Z,6.35
2022-09-11T18:46:25.447Z,7.03
2022-09-11T18:48:52.496Z,6.47
2022-09-11T18:51:20.148Z,6.80
2022-09-11T18:53:53.716Z,7.78
2022-09-11T18:56:28.263Z,6.03
2022-09-11T18:58:55.985Z,7.63
2022-09-11T19:01:27.278Z,6.97
2022-09-11T19:03:53.808Z,6.95
2022-09-11T19:06:23.309Z,7.82
2022-09-11T19:08:51.138Z,8.18
2022-09-11T19:11:21.932Z,8.48
2022-09-11T19:13:49.811Z,8.20
2022-09-11T19:16:21.218Z,9.05
2022-09-11T19:18:48.565Z,8.35
2022-09-11T19:21:18.109Z,7.47
2022-09-11T19:23:49.103Z,8.00
2022-09-11T19:26:19.266Z,7.78
2022-09-11T19:28:46.380Z,8.02
2022-09-11T19:31:14.806Z,7.30
2022-09-11T19:33:44.463Z,8.30
2022-09-11T19:36:17.709Z,9.07
2022-09-11T19:38:46.207Z,8.60
2022-09-11T19:41:15.238Z,8.10
2022-09-11T19:43:43.068Z,8.55
2022-09-11T19:46:12.798Z,8.18
2022-09-11T19:48:40.572Z,9.15
2022-09-11T19:51:16.098Z,9.43
2022-09-11T19:53:43.317Z,9.73
2022-09-11T19:56:11.428Z,9.30
2022-09-11T19:58:40.648Z,10.30
2022-09-11T20:01:12.940Z,11.02
2022-09-11T20:03:42.984Z,10.10
2022-09-11T20:06:10.824Z,10.63
2022-09-11T20:08:38.270Z,10.27
2022-09-11T20:11:07.153Z,10.70
2022-09-11T20:13:37.346Z,12.27
2022-09-11T20:16:05.880Z,12.05
2022-09-11T20:18:33.980Z,13.68
2022-09-11T20:21:09.307Z,12.15
2022-09-11T20:23:36.091Z,13.48
2022-09-11T20:26:19.835Z,14.77
2022-09-11T20:28:48.206Z,15.27
2022-09-11T20:31:17.257Z,14.32
2022-09-11T20:33:45.097Z,15.60
2022-09-11T20:36:12.597Z,14.93
2022-09-11T20:38:39.353Z,14.52
2022-09-11T20:41:12.047Z,16.13
2022-09-11T20:43:39.211Z,15.25
2022-09-11T20:46:06.858Z,14.73
2022-09-11T20:48:33.611Z,15.07
2022-09-11T20:51:08.509Z,16.90
2022-09-11T20:53:35.136Z,14.70
2022-09-11T20:56:08.024Z,16.60
2022-09-11T20:58:35.240Z,16.17
2022-09-11T21:01:02.104Z,16.85
2022-09-11T21:03:29.010Z,15.68
2022-09-11T21:05:56.536Z,15.90
2022-09-11T21:08:25.437Z,16.08
2022-09-11T21:10:51.909Z,15.13
2022-09-11T21:13:18.389Z,17.17
2022-09-11T21:15:46.329Z,16.10
2022-09-11T21:18:13.838Z,16.20
2022-09-11T21:20:40.979Z,16.30
2022-09-11T21:23:07.777Z,16.77
2022-09-11T21:25:40.354Z,17.45
2022-09-11T21:28:06.966Z,17.10
2022-09-11T21:30:33.434Z,16.88
2022-09-11T21:32:59.993Z,17.85
2022-09-11T21:35:26.444Z,18.55
2022-09-11T21:37:52.925Z,18.85
2022-09-11T21:40:19.441Z,17.27
2022-09-11T21:42:45.988Z,18.65
2022-09-11T21:45:12.545Z,17.38
2022-09-11T21:47:39.081Z,19.20
2022-09-11T21:50:07.123Z,17.52
2022-09-11T21:52:34.416Z,17.13
2022-09-11T21:55:00.886Z,16.80
2022-09-11T21:57:30.846Z,17.58
2022-09-11T21:59:58.437Z,18.17
2022-09-11T22:02:26.028Z,16.17
2022-09-11T22:04:53.339Z,16.13
2022-09-11T22:07:20.321Z,16.35
2022-09-11T22:09:47.958Z,17.10
2022-09-11T22:12:15.210Z,16.48
2022-09-11T22:14:44.250Z,17.77
2022-09-11T22:17:11.787Z,18.30
2022-09-11T22:19:38.446Z,16.30
2022-09-11T22:22:06.566Z,16.80
2022-09-11T22:24:33.095Z,18.55
2022-09-11T22:26:59.786Z,18.30
2022-09-11T22:29:26.363Z,19.25
2022-09-11T22:31:52.889Z,18.23
2022-09-11T22:34:19.472Z,18.05
2022-09-11T22:36:46.040Z,19.52
2022-09-11T22:39:12.526Z,20.08
2022-09-11T22:41:39.169Z,18.85
2022-09-11T22:44:05.643Z,21.40
2022-09-11T22:46:32.123Z,19.48
2022-09-11T22:48:58.920Z,18.58
2022-09-11T22:51:25.426Z,19.25
2022-09-11T22:53:51.932Z,18.50
2022-09-11T22:56:18.410Z,19.48
2022-09-11T22:58:45.195Z,19.25
2022-09-11T23:01:13.100Z,17.63
2022-09-11T23:03:40.132Z,20.05
2022-09-11T23:06:25.140Z,18.85
2022-09-11T23:08:52.524Z,18.33
2022-09-11T23:11:19.903Z,19.50
2022-09-11T23:13:48.413Z,19.20
2022-09-11T23:16:21.192Z,17.92
2022-09-11T23:18:48.487Z,18.60
2022-09-11T23:21:15.041Z,18.35
2022-09-11T23:23:42.709Z,20.08
2022-09-11T23:26:10.896Z,20.73
2022-09-11T23:28:38.184Z,20.35
2022-09-11T23:31:11.130Z,18.20
2022-09-11T23:33:37.709Z,18.42
2022-09-11T23:36:09.068Z,21.13
2022-09-11T23:38:35.583Z,19.10
2022-09-11T23:41:02.011Z,18.00
2022-09-11T23:43:28.721Z,18.92
2022-09-11T23:45:55.342Z,18.15
2022-09-11T23:48:21.976Z,18.73
2022-09-11T23:50:48.456Z,20.75
2022-09-11T23:53:14.922Z,20.02
2022-09-11T23:55:42.471Z,20.13
2022-09-11T23:58:09.087Z,19.42
